Time;durP1;ratioP1;P1;durP2;ratioP2;P2;SDS_P1;SDS_P2;PMS_P1;PMS_P2;Temp;Humidity;BMP_temperature;BMP_pressure;BME280_temperature;BME280_humidity;BME280_pressure;Samples;Min_cycle;Max_cycle;Signal;HPM_P1;HPM_P2
2021/09/24 00:00:55;;;;;;;9.53;2.15;;;;;;;13.61;73.04;99723.11;1707407;84;21027;-78
2021/09/24 00:03:21;;;;;;;5.17;2.30;;;;;;;13.60;72.99;99724.64;1707602;84;21011;-77
2021/09/24 00:05:48;;;;;;;9.50;1.67;;;;;;;13.56;72.95;99716.70;1707209;84;21024;-77
2021/09/24 00:08:14;;;;;;;8.03;2.00;;;;;;;13.54;72.93;99726.81;1707656;84;21056;-77
2021/09/24 00:10:40;;;;;;;14.03;2.58;;;;;;;13.48;72.87;99734.63;1707053;84;21500;-77
2021/09/24 00:13:06;;;;;;;6.62;1.90;;;;;;;13.42;72.82;99724.73;1707336;84;21047;-77
2021/09/24 00:15:32;;;;;;;10.23;2.42;;;;;;;13.38;72.75;99736.05;1707502;84;21055;-77
2021/09/24 00:17:58;;;;;;;12.70;2.92;;;;;;;13.31;72.71;99725.84;1707592;84;21023;-77
2021/09/24 00:20:24;;;;;;;10.05;2.27;;;;;;;13.27;72.62;99742.84;1707350;84;21143;-77
2021/09/24 00:22:50;;;;;;;6.62;2.12;;;;;;;13.24;72.55;99759.31;1700570;84;21035;-77
2021/09/24 00:25:16;;;;;;;16.10;2.90;;;;;;;13.20;72.46;99759.41;1688190;84;21558;-77
2021/09/24 00:27:42;;;;;;;14.47;2.33;;;;;;;13.15;72.36;99764.55;1690362;84;21506;-77
2021/09/24 00:30:09;;;;;;;10.88;2.25;;;;;;;13.11;72.23;99762.48;1690436;84;21081;-77
2021/09/24 00:32:36;;;;;;;15.28;2.10;;;;;;;13.07;72.10;99754.50;1690461;84;21152;-77
2021/09/24 00:35:02;;;;;;;11.05;2.08;;;;;;;13.03;71.88;99770.97;1690245;84;21061;-77
2021/09/24 00:37:28;;;;;;;12.88;2.70;;;;;;;13.03;71.54;99759.43;1690503;84;21006;-77
2021/09/24 00:39:54;;;;;;;12.33;2.40;;;;;;;13.01;71.29;99764.17;1690333;84;21097;-77
2021/09/24 00:42:20;;;;;;;15.00;2.58;;;;;;;12.95;71.00;99771.64;1690617;84;21529;-77
2021/09/24 00:44:48;;;;;;;6.95;2.27;;;;;;;12.93;70.76;99781.73;1690098;84;21879;-77
2021/09/24 00:47:16;;;;;;;13.15;2.40;;;;;;;12.89;70.61;99779.14;1690037;84;21037;-77
2021/09/24 00:49:42;;;;;;;13.13;2.45;;;;;;;12.81;70.47;99765.92;1690380;84;21014;-77
2021/09/24 00:52:08;;;;;;;16.15;2.87;;;;;;;12.78;70.28;99763.66;1690363;84;21509;-77
2021/09/24 00:54:34;;;;;;;19.50;2.77;;;;;;;12.74;70.16;99759.72;1690503;84;21013;-77
2021/09/24 00:57:01;;;;;;;13.20;2.50;;;;;;;12.69;70.02;99763.02;1690306;84;21149;-77
2021/09/24 00:59:27;;;;;;;13.48;2.35;;;;;;;12.66;69.85;99756.73;1690431;83;21061;-77
2021/09/24 01:01:53;;;;;;;14.85;2.65;;;;;;;12.61;69.78;99770.38;1690284;83;21490;-77
2021/09/24 01:04:19;;;;;;;13.48;2.15;;;;;;;12.55;69.70;99772.51;1690488;84;21066;-77
2021/09/24 01:06:45;;;;;;;16.02;2.80;;;;;;;12.49;69.66;99776.27;1690105;84;21002;-77
2021/09/24 01:09:11;;;;;;;16.75;2.75;;;;;;;12.44;69.57;99779.23;1690396;84;21666;-77
2021/09/24 01:11:37;;;;;;;9.95;2.25;;;;;;;12.41;69.52;99775.62;1690358;84;21490;-77
2021/09/24 01:14:04;;;;;;;16.85;4.00;;;;;;;12.39;69.44;99775.81;1690413;84;20898;-76
2021/09/24 01:16:30;;;;;;;19.07;4.15;;;;;;;12.36;69.30;99769.52;1690468;84;21037;-76
2021/09/24 01:18:56;;;;;;;15.38;3.10;;;;;;;12.30;69.22;99768.98;1690378;84;21058;-76
2021/09/24 01:21:23;;;;;;;22.20;3.15;;;;;;;12.24;69.14;99771.62;1690500;83;21134;-76
2021/09/24 01:23:49;;;;;;;19.90;2.77;;;;;;;12.20;69.03;99772.52;1710754;82;21137;-76
2021/09/24 01:26:15;;;;;;;15.43;3.25;;;;;;;12.13;68.91;99781.00;1745931;82;21015;-76
2021/09/24 01:28:44;;;;;;;12.33;3.70;;;;;;;12.09;68.81;99785.59;1746240;81;21058;-76
2021/09/24 01:31:09;;;;;;;14.60;2.52;;;;;;;12.06;68.71;99802.02;1701994;82;21033;-76
2021/09/24 01:33:35;;;;;;;20.75;3.20;;;;;;;12.01;68.63;99799.41;1705291;83;21180;-77
2021/09/24 01:36:01;;;;;;;18.40;3.52;;;;;;;11.99;68.49;99793.95;1713005;83;20997;-77
2021/09/24 01:38:27;;;;;;;19.00;3.77;;;;;;;11.97;68.42;99802.66;1716018;83;20970;-77
2021/09/24 01:40:53;;;;;;;22.80;4.00;;;;;;;11.91;68.37;99799.42;1716317;83;20976;-77
2021/09/24 01:43:19;;;;;;;16.23;3.47;;;;;;;11.87;68.29;99802.16;1716183;83;21064;-77
2021/09/24 01:45:45;;;;;;;19.75;3.50;;;;;;;11.82;68.22;99793.91;1716386;83;21090;-77
2021/09/24 01:48:12;;;;;;;25.43;4.97;;;;;;;11.78;68.21;99810.01;1715358;83;21040;-77
2021/09/24 01:50:38;;;;;;;15.45;3.17;;;;;;;11.77;68.12;99801.67;1713516;83;21021;-77
2021/09/24 01:53:04;;;;;;;28.52;3.72;;;;;;;11.75;68.02;99802.37;1701664;83;21078;-76
2021/09/24 01:55:30;;;;;;;19.27;4.00;;;;;;;11.74;67.96;99802.05;1675721;85;21014;-77
2021/09/24 01:57:56;;;;;;;13.80;2.67;;;;;;;11.74;67.89;99794.04;1675742;85;21190;-77
2021/09/24 02:00:22;;;;;;;15.13;3.15;;;;;;;11.78;67.83;99806.00;1678314;83;21064;-76
2021/09/24 02:02:48;;;;;;;19.10;3.00;;;;;;;11.78;67.79;99806.00;1675200;85;21053;-76
2021/09/24 02:05:14;;;;;;;20.60;3.52;;;;;;;11.82;67.70;99819.30;1675399;85;21042;-77
2021/09/24 02:07:40;;;;;;;21.30;3.58;;;;;;;11.87;67.63;99815.52;1703284;83;21051;-77
2021/09/24 02:10:08;;;;;;;15.32;2.75;;;;;;;11.89;67.57;99825.52;1689157;83;21175;-76
2021/09/24 02:12:34;;;;;;;16.93;2.67;;;;;;;11.93;67.48;99819.58;1701478;83;21079;-77
2021/09/24 02:15:00;;;;;;;18.55;3.35;;;;;;;11.93;67.42;99810.23;1716341;83;21524;-77
2021/09/24 02:17:26;;;;;;;16.15;2.85;;;;;;;11.95;67.36;99810.05;1716053;83;21494;-77
2021/09/24 02:19:52;;;;;;;17.65;3.30;;;;;;;11.98;67.22;99809.66;1716336;83;21060;-77
2021/09/24 02:22:18;;;;;;;15.38;2.50;;;;;;;12.03;67.05;99806.70;1715991;83;21190;-77
2021/09/24 02:24:44;;;;;;;13.48;2.55;;;;;;;12.09;66.89;99823.83;1716940;83;21014;-76
2021/09/24 02:27:10;;;;;;;14.05;2.67;;;;;;;12.12;66.75;99828.78;1705375;83;21058;-76
2021/09/24 02:29:36;;;;;;;14.13;2.72;;;;;;;12.13;66.62;99823.77;1690425;83;21063;-76
2021/09/24 02:32:03;;;;;;;15.50;3.10;;;;;;;12.15;66.55;99828.39;1696755;83;21056;-77
2021/09/24 02:34:29;;;;;;;11.88;2.47;;;;;;;12.16;66.50;99827.38;1719230;83;21142;-76
2021/09/24 02:36:55;;;;;;;12.10;2.15;;;;;;;12.17;66.37;99835.73;1701835;83;20994;-77
2021/09/24 02:39:21;;;;;;;12.93;2.42;;;;;;;12.21;66.31;99842.31;1690662;83;21050;-77
2021/09/24 02:41:47;;;;;;;16.75;2.52;;;;;;;12.20;66.21;99848.70;1697336;82;20891;-77
2021/09/24 02:44:13;;;;;;;12.07;1.98;;;;;;;12.21;66.15;99850.34;1716384;83;20931;-76
2021/09/24 02:46:39;;;;;;;18.32;3.70;;;;;;;12.22;66.12;99849.33;1708406;83;21088;-77
2021/09/24 02:49:05;;;;;;;15.23;2.80;;;;;;;12.22;66.08;99849.83;1688933;84;21631;-76
2021/09/24 02:51:31;;;;;;;8.40;1.98;;;;;;;12.20;66.08;99845.20;1708330;83;20984;-76
2021/09/24 02:53:57;;;;;;;14.63;3.20;;;;;;;12.18;66.09;99850.73;1718085;83;20994;-76
2021/09/24 02:56:23;;;;;;;23.75;3.98;;;;;;;12.19;66.08;99852.39;1716693;82;21045;-76
2021/09/24 02:58:50;;;;;;;20.00;4.12;;;;;;;12.21;66.07;99842.85;1691228;82;21194;-76
2021/09/24 03:01:16;;;;;;;13.30;3.30;;;;;;;12.24;66.04;99855.83;1693511;83;21048;-76
2021/09/24 03:03:42;;;;;;;13.50;3.05;;;;;;;12.21;66.04;99855.68;1719159;83;21597;-76
2021/09/24 03:06:08;;;;;;;16.12;3.12;;;;;;;12.20;66.04;99848.70;1691465;83;20979;-76
2021/09/24 03:08:34;;;;;;;16.97;2.92;;;;;;;12.20;66.04;99850.05;1714127;83;21080;-76
2021/09/24 03:11:00;;;;;;;20.55;2.47;;;;;;;12.16;66.06;99850.11;1718421;83;21021;-76
2021/09/24 03:13:26;;;;;;;19.15;4.15;;;;;;;12.13;66.10;99850.50;1690865;83;21015;-76
2021/09/24 03:15:54;;;;;;;16.55;3.33;;;;;;;12.11;66.17;99853.86;1690371;84;21094;-76
2021/09/24 03:18:21;;;;;;;22.40;4.47;;;;;;;12.11;66.20;99862.38;1711104;83;21049;-76
2021/09/24 03:20:47;;;;;;;18.60;2.90;;;;;;;12.11;66.24;99863.21;1717781;83;21363;-76
2021/09/24 03:23:13;;;;;;;18.50;3.92;;;;;;;12.11;66.29;99861.88;1690692;83;21086;-76
2021/09/24 03:25:39;;;;;;;19.32;3.42;;;;;;;12.11;66.30;99860.54;1681788;84;20986;-76
2021/09/24 03:28:05;;;;;;;19.00;3.52;;;;;;;12.11;66.37;99870.40;1700596;83;21088;-76
2021/09/24 03:30:31;;;;;;;21.17;3.33;;;;;;;12.10;66.40;99866.09;1721323;83;21047;-76
2021/09/24 03:32:57;;;;;;;16.10;3.30;;;;;;;12.09;66.47;99864.43;1719969;83;21044;-76
2021/09/24 03:35:23;;;;;;;16.00;3.37;;;;;;;12.08;66.51;99872.13;1721485;83;21621;-76
2021/09/24 03:37:49;;;;;;;13.68;3.12;;;;;;;12.08;66.57;99882.31;1721037;83;21008;-76
2021/09/24 03:40:15;;;;;;;16.97;3.72;;;;;;;12.08;66.60;99892.17;1721252;83;21080;-76
2021/09/24 03:42:41;;;;;;;16.75;3.60;;;;;;;12.06;66.66;99887.03;1689198;83;21030;-76
2021/09/24 03:45:09;;;;;;;18.30;3.10;;;;;;;12.08;66.71;99893.00;1675659;83;21014;-76
2021/09/24 03:47:35;;;;;;;16.25;3.55;;;;;;;12.08;66.77;99897.52;1680486;83;21467;-76
2021/09/24 03:50:01;;;;;;;24.05;3.72;;;;;;;12.06;66.81;99889.70;1696732;84;21023;-76
2021/09/24 03:52:27;;;;;;;19.75;4.15;;;;;;;12.07;66.87;99899.36;1695042;84;21075;-77
2021/09/24 03:54:53;;;;;;;20.17;3.62;;;;;;;12.05;66.91;99896.06;1715873;83;20937;-76
2021/09/24 03:57:19;;;;;;;19.82;3.27;;;;;;;12.04;66.95;99902.41;1721084;83;21067;-76
2021/09/24 03:59:45;;;;;;;16.25;3.60;;;;;;;12.03;67.02;99891.43;1721095;83;21163;-76
2021/09/24 04:02:11;;;;;;;19.98;4.35;;;;;;;12.04;67.09;99898.41;1709953;83;21052;-76
2021/09/24 04:04:37;;;;;;;18.73;3.47;;;;;;;12.03;67.13;99903.45;1720836;83;21003;-76
2021/09/24 04:07:05;;;;;;;19.30;3.60;;;;;;;12.02;67.18;99913.82;1720905;83;20960;-76
2021/09/24 04:09:32;;;;;;;17.82;4.58;;;;;;;12.04;67.22;99922.46;1720746;83;21013;-76
2021/09/24 04:11:58;;;;;;;24.15;5.60;;;;;;;12.03;67.28;99914.15;1703177;83;21649;-76
2021/09/24 04:14:24;;;;;;;18.17;4.28;;;;;;;12.01;67.33;99911.66;1675398;84;20954;-76
2021/09/24 04:16:50;;;;;;;17.25;3.37;;;;;;;12.01;67.38;99914.33;1680243;85;21018;-76
2021/09/24 04:19:16;;;;;;;19.55;3.83;;;;;;;12.00;67.45;99911.83;1696909;84;21539;-76
2021/09/24 04:21:43;;;;;;;19.30;4.60;;;;;;;12.02;67.51;99921.84;1696699;84;21574;-76
2021/09/24 04:24:09;;;;;;;13.95;3.15;;;;;;;12.01;67.58;99927.69;1696499;84;21153;-76
2021/09/24 04:26:35;;;;;;;19.90;4.53;;;;;;;12.01;67.63;99925.52;1697606;84;21532;-76
2021/09/24 04:29:01;;;;;;;15.70;3.08;;;;;;;12.03;67.69;99928.02;1702772;84;21027;-76
2021/09/24 04:31:28;;;;;;;24.23;3.98;;;;;;;12.03;67.72;99932.86;1664079;84;21045;-77
2021/09/24 04:33:54;;;;;;;21.87;2.95;;;;;;;12.04;67.77;99931.81;1732355;82;21083;-78
2021/09/24 04:36:20;;;;;;;19.98;3.87;;;;;;;12.04;67.83;99925.13;1695106;84;21184;-77
2021/09/24 04:38:47;;;;;;;18.82;3.25;;;;;;;12.04;67.88;99934.48;1712473;82;21004;-77
2021/09/24 04:41:13;;;;;;;17.40;3.30;;;;;;;12.05;67.95;99938.83;1665072;84;21068;-77
2021/09/24 04:43:39;;;;;;;18.17;3.27;;;;;;;12.05;68.00;99944.17;1723821;81;21044;-77
2021/09/24 04:46:05;;;;;;;18.55;3.80;;;;;;;12.05;68.05;99949.52;1701939;84;21470;-77
2021/09/24 04:48:32;;;;;;;16.50;3.77;;;;;;;12.05;68.09;99946.84;1707687;84;22105;-77
2021/09/24 04:50:59;;;;;;;18.23;4.55;;;;;;;12.06;68.14;99950.34;1706822;83;21099;-77
2021/09/24 04:53:25;;;;;;;15.43;3.27;;;;;;;12.05;68.23;99950.85;1707112;83;21060;-77
2021/09/24 04:55:51;;;;;;;16.55;3.55;;;;;;;12.05;68.26;99953.52;1704911;83;21489;-77
2021/09/24 04:58:17;;;;;;;19.67;3.67;;;;;;;12.04;68.29;99955.87;1679129;84;21662;-77
2021/09/24 05:00:43;;;;;;;20.70;3.95;;;;;;;12.04;68.34;99963.89;1679230;84;21064;-76
2021/09/24 05:03:09;;;;;;;16.42;4.20;;;;;;;12.03;68.39;99963.05;1703675;84;21032;-76
2021/09/24 05:05:35;;;;;;;18.75;3.95;;;;;;;12.04;68.43;99963.89;1707431;83;20928;-76
2021/09/24 05:08:01;;;;;;;17.73;4.45;;;;;;;12.06;68.46;99963.20;1707400;84;21039;-76
2021/09/24 05:10:27;;;;;;;11.78;2.20;;;;;;;12.07;68.48;99971.52;1691042;80;21392;-77
2021/09/24 05:12:53;;;;;;;13.30;2.95;;;;;;;12.07;68.52;99970.19;1666276;84;22248;-76
2021/09/24 05:15:19;;;;;;;12.75;2.67;;;;;;;12.07;68.55;99984.89;1704327;83;21337;-76
2021/09/24 05:17:45;;;;;;;16.93;3.60;;;;;;;12.07;68.59;99979.54;1716697;83;21358;-77
2021/09/24 05:20:12;;;;;;;25.62;3.92;;;;;;;12.08;68.62;99987.89;1705061;83;21050;-77
2021/09/24 05:22:38;;;;;;;17.30;3.35;;;;;;;12.08;68.67;99997.24;1709421;83;21562;-77
2021/09/24 05:25:05;;;;;;;15.72;3.20;;;;;;;12.09;68.70;99990.05;1700859;83;21175;-77
2021/09/24 05:27:31;;;;;;;12.88;2.90;;;;;;;12.08;68.75;99989.22;1699728;83;21524;-77
2021/09/24 05:29:57;;;;;;;12.70;2.70;;;;;;;12.08;68.79;99993.23;1699201;84;21005;-77
2021/09/24 05:32:23;;;;;;;16.15;3.02;;;;;;;12.08;68.83;99994.57;1708432;83;21051;-77
2021/09/24 05:34:49;;;;;;;12.63;2.75;;;;;;;12.09;68.89;100000.24;1701063;83;21077;-76
2021/09/24 05:37:15;;;;;;;23.80;2.98;;;;;;;12.10;68.97;100005.92;1699085;84;21127;-76
2021/09/24 05:39:42;;;;;;;12.07;3.17;;;;;;;12.11;69.01;100004.88;1699328;84;20998;-77
2021/09/24 05:42:09;;;;;;;17.73;3.08;;;;;;;12.13;69.07;100002.86;1699227;84;21070;-77
2021/09/24 05:44:35;;;;;;;10.63;2.58;;;;;;;12.15;69.11;100004.82;1699327;84;21081;-77
2021/09/24 05:47:01;;;;;;;19.55;3.62;;;;;;;12.20;69.16;100011.78;1699101;84;21049;-77
2021/09/24 05:49:30;;;;;;;18.17;2.40;;;;;;;12.24;69.21;100013.06;1710509;83;21181;-77
2021/09/24 05:52:01;;;;;;;14.10;2.70;;;;;;;12.26;69.22;100010.18;1697387;82;21101;-77
2021/09/24 05:54:27;;;;;;;12.90;3.08;;;;;;;12.27;69.25;100007.33;1715138;83;21027;-77
2021/09/24 05:56:54;;;;;;;12.20;2.83;;;;;;;12.30;69.28;100008.28;1707005;83;21050;-77
2021/09/24 05:59:21;;;;;;;8.70;1.98;;;;;;;12.33;69.29;100009.23;1695477;83;21013;-77
2021/09/24 06:01:48;;;;;;;17.65;3.15;;;;;;;12.37;69.31;100017.70;1703874;83;21104;-77
2021/09/24 06:04:18;;;;;;;14.65;2.87;;;;;;;12.38;69.28;100007.33;1710258;83;21077;-77
2021/09/24 06:06:46;;;;;;;22.75;4.12;;;;;;;12.39;69.29;100007.63;1699085;83;21581;-77
2021/09/24 06:09:12;;;;;;;14.43;2.72;;;;;;;12.39;69.30;100011.13;1700751;84;21096;-77
2021/09/24 06:11:38;;;;;;;14.07;3.12;;;;;;;12.41;69.27;100024.33;1714332;83;21119;-77
2021/09/24 06:14:04;;;;;;;14.78;3.35;;;;;;;12.45;69.25;100019.72;1717457;83;21193;-77
2021/09/24 06:16:30;;;;;;;17.12;3.70;;;;;;;12.46;69.24;100022.72;1717133;83;21084;-77
2021/09/24 06:18:56;;;;;;;17.17;2.85;;;;;;;12.48;69.23;100029.23;1717487;83;21079;-77
2021/09/24 06:21:23;;;;;;;15.13;2.95;;;;;;;12.47;69.23;100027.06;1663105;85;21062;-77
2021/09/24 06:23:49;;;;;;;18.45;2.87;;;;;;;12.48;69.24;100027.39;1663319;86;22159;-78
2021/09/24 06:26:15;;;;;;;14.50;2.85;;;;;;;12.48;69.21;100028.73;1665056;86;21762;-77
2021/09/24 06:28:41;;;;;;;13.40;2.58;;;;;;;12.52;69.21;100036.66;1665208;86;21060;-77
2021/09/24 06:31:07;;;;;;;13.83;2.85;;;;;;;12.57;69.19;100034.76;1663244;84;21040;-77
2021/09/24 06:33:34;;;;;;;14.93;3.35;;;;;;;12.62;69.21;100039.54;1670840;84;21038;-78
2021/09/24 06:36:00;;;;;;;13.65;3.35;;;;;;;12.66;69.18;100040.82;1643207;84;21080;-76
2021/09/24 06:38:26;;;;;;;21.05;3.65;;;;;;;12.72;69.19;100041.38;1668137;84;21156;-76
2021/09/24 06:40:52;;;;;;;11.33;2.62;;;;;;;12.74;69.14;100045.52;1665499;84;21085;-76
2021/09/24 06:43:18;;;;;;;13.08;2.20;;;;;;;12.76;69.14;100053.36;1673455;84;21054;-76
2021/09/24 06:45:48;;;;;;;14.63;2.90;;;;;;;12.80;69.09;100053.30;1670600;84;21622;-78
2021/09/24 06:48:14;;;;;;;17.17;2.90;;;;;;;12.84;69.08;100064.73;1646937;84;21027;-77
2021/09/24 06:50:40;;;;;;;13.05;3.05;;;;;;;12.87;69.05;100060.37;1670791;84;21098;-77
2021/09/24 06:53:06;;;;;;;14.15;3.45;;;;;;;12.87;68.98;100059.53;1667650;84;21011;-77
2021/09/24 06:55:32;;;;;;;13.83;2.40;;;;;;;12.90;68.99;100068.52;1664282;84;21019;-77
2021/09/24 06:57:58;;;;;;;10.28;2.12;;;;;;;12.93;68.98;100070.30;1668146;84;21032;-78
2021/09/24 07:00:25;;;;;;;15.50;2.45;;;;;;;12.96;68.93;100062.38;1667870;84;21029;-77
2021/09/24 07:02:51;;;;;;;21.05;3.35;;;;;;;12.94;68.93;100058.58;1661843;86;21156;-79
2021/09/24 07:05:17;;;;;;;16.30;3.15;;;;;;;12.92;68.88;100068.63;1666890;84;21514;-78
2021/09/24 07:07:44;;;;;;;15.90;2.95;;;;;;;12.95;68.90;100059.38;1670796;84;21091;-78
2021/09/24 07:10:11;;;;;;;13.38;3.22;;;;;;;12.95;68.89;100066.06;1664386;84;21036;-78
2021/09/24 07:12:37;;;;;;;15.88;2.77;;;;;;;12.91;68.86;100074.19;1662446;84;21530;-78
2021/09/24 07:15:05;;;;;;;14.78;2.62;;;;;;;12.85;68.89;100077.61;1661127;85;21245;-78
2021/09/24 07:17:31;;;;;;;13.43;2.37;;;;;;;12.81;68.95;100073.16;1652586;85;21477;-79
2021/09/24 07:19:57;;;;;;;13.78;2.87;;;;;;;12.77;69.01;100074.55;1648091;85;20901;-79
2021/09/24 07:22:24;;;;;;;17.92;2.75;;;;;;;12.75;69.06;100079.79;1658502;85;21038;-79
2021/09/24 07:24:50;;;;;;;15.43;3.10;;;;;;;12.74;69.11;100088.33;1656667;84;21596;-79
2021/09/24 07:27:17;;;;;;;21.23;4.50;;;;;;;12.76;69.17;100091.66;1663128;85;21156;-79
2021/09/24 07:29:43;;;;;;;15.83;3.40;;;;;;;12.78;69.22;100098.13;1713692;82;21119;-79
2021/09/24 07:32:09;;;;;;;16.10;4.00;;;;;;;12.79;69.29;100105.15;1714825;82;21527;-78
2021/09/24 07:34:35;;;;;;;13.65;2.35;;;;;;;12.78;69.33;100100.30;1712055;83;21492;-79
2021/09/24 07:37:01;;;;;;;13.35;3.02;;;;;;;12.78;69.39;100108.84;1714670;83;21078;-80
2021/09/24 07:39:28;;;;;;;12.20;2.52;;;;;;;12.79;69.43;100111.34;1715322;83;21769;-78
2021/09/24 07:41:54;;;;;;;12.45;2.95;;;;;;;12.86;69.52;100108.22;1700290;83;21072;-79
2021/09/24 07:44:20;;;;;;;17.23;3.83;;;;;;;12.90;69.54;100120.70;1714300;83;21142;-79
2021/09/24 07:46:51;;;;;;;21.57;3.37;;;;;;;12.94;69.60;100120.14;1713416;82;21117;-78
2021/09/24 07:49:15;;;;;;;19.23;5.72;;;;;;;12.95;69.63;100124.45;1714810;82;20992;-78
2021/09/24 07:51:41;;;;;;;13.98;3.55;;;;;;;12.99;69.69;100123.55;1714725;83;21770;-78
2021/09/24 07:54:08;;;;;;;14.87;3.42;;;;;;;13.02;69.71;100133.88;1707432;83;21090;-78
2021/09/24 07:56:34;;;;;;;16.77;3.37;;;;;;;13.04;69.74;100142.56;1715816;83;21554;-78
2021/09/24 07:59:00;;;;;;;19.62;5.40;;;;;;;13.11;69.78;100134.61;1704901;83;21078;-77
2021/09/24 08:01:26;;;;;;;14.40;3.17;;;;;;;13.19;69.82;100135.83;1714594;83;21018;-78
2021/09/24 08:03:53;;;;;;;18.25;4.35;;;;;;;13.17;69.80;100136.00;1713346;83;21145;-78
2021/09/24 08:06:20;;;;;;;15.55;4.58;;;;;;;13.17;69.81;100133.33;1714421;83;21067;-78
2021/09/24 08:08:47;;;;;;;23.80;7.35;;;;;;;13.17;69.83;100143.20;1715497;83;21405;-78
2021/09/24 08:11:13;;;;;;;23.75;5.75;;;;;;;13.17;69.86;100141.36;1715697;83;21185;-78
2021/09/24 08:13:41;;;;;;;19.98;3.92;;;;;;;13.18;69.88;100136.33;1712787;83;21532;-79
2021/09/24 08:16:07;;;;;;;14.25;2.77;;;;;;;13.21;69.91;100140.47;1687904;83;21256;-78
2021/09/24 08:18:33;;;;;;;23.02;5.25;;;;;;;13.25;69.93;100142.57;1715495;83;21031;-78
2021/09/24 08:20:59;;;;;;;18.65;3.80;;;;;;;13.34;69.96;100148.09;1715874;82;21107;-78
2021/09/24 08:23:26;;;;;;;18.62;3.47;;;;;;;13.37;69.92;100145.02;1715910;83;21042;-78
2021/09/24 08:25:52;;;;;;;21.05;3.72;;;;;;;13.30;69.89;100140.12;1715464;82;21062;-78
2021/09/24 08:28:18;;;;;;;19.73;3.98;;;;;;;13.32;69.92;100152.83;1716006;83;21169;-78
2021/09/24 08:30:44;;;;;;;17.35;3.60;;;;;;;13.32;69.94;100145.30;1712360;83;21039;-79
2021/09/24 08:33:10;;;;;;;13.40;3.60;;;;;;;13.33;69.96;100154.50;1715574;82;21038;-79
2021/09/24 08:35:36;;;;;;;19.92;4.12;;;;;;;13.39;69.98;100153.71;1719236;83;21047;-79
2021/09/24 08:38:03;;;;;;;20.68;3.37;;;;;;;13.48;69.97;100162.41;1702247;83;21566;-79
2021/09/24 08:40:30;;;;;;;19.40;4.30;;;;;;;13.63;69.99;100163.16;1719412;82;21171;-79
2021/09/24 08:42:56;;;;;;;18.42;4.50;;;;;;;13.76;69.94;100169.11;1717876;82;21114;-78
2021/09/24 08:45:26;;;;;;;15.70;4.75;;;;;;;13.83;69.91;100175.34;1720753;82;21884;-77
2021/09/24 08:47:55;;;;;;;20.60;5.12;;;;;;;13.92;69.89;100174.18;1715434;82;21059;-78
2021/09/24 08:50:21;;;;;;;18.10;4.27;;;;;;;14.03;69.87;100180.34;1724766;82;21063;-77
2021/09/24 08:52:47;;;;;;;15.18;3.05;;;;;;;14.02;69.74;100186.72;1719044;82;21129;-78
2021/09/24 08:55:13;;;;;;;16.02;2.98;;;;;;;13.98;69.63;100178.23;1722086;82;21047;-79
2021/09/24 08:57:41;;;;;;;24.90;3.75;;;;;;;13.97;69.57;100183.78;1725111;82;21054;-78
2021/09/24 09:00:08;;;;;;;18.92;4.00;;;;;;;13.93;69.51;100190.59;1724120;82;21050;-78
2021/09/24 09:02:53;;;;;;;16.82;3.55;;;;;;;13.91;69.44;100186.75;1715577;82;21528;-78
2021/09/24 09:05:19;;;;;;;21.65;3.85;;;;;;;13.90;69.37;100191.79;1731937;82;21340;-78
2021/09/24 09:07:45;;;;;;;22.15;4.53;;;;;;;13.95;69.30;100187.19;1718112;82;21542;-78
2021/09/24 09:10:11;;;;;;;18.30;3.85;;;;;;;14.01;69.21;100186.39;1715139;82;21451;-79
2021/09/24 09:12:38;;;;;;;22.02;5.22;;;;;;;14.04;69.13;100192.70;1726534;82;21077;-79
2021/09/24 09:15:13;;;;;;;16.77;3.87;;;;;;;14.15;69.07;100200.19;1712199;82;21047;-68
2021/09/24 09:17:41;;;;;;;21.77;4.15;;;;;;;14.18;68.96;100199.79;1724840;82;21226;-68
2021/09/24 09:20:19;;;;;;;21.82;4.65;;;;;;;14.30;68.95;100200.91;1722018;82;21091;-68
2021/09/24 09:23:02;;;;;;;26.60;4.37;;;;;;;14.37;68.78;100191.06;1717221;82;21036;-68
2021/09/24 09:25:35;;;;;;;15.70;5.00;;;;;;;14.43;68.66;100202.33;1710783;82;21596;-67
2021/09/24 09:28:04;;;;;;;28.70;4.25;;;;;;;14.54;68.51;100204.95;1718123;82;21090;-68
2021/09/24 09:30:31;;;;;;;24.47;3.83;;;;;;;14.61;68.46;100204.98;1723536;82;21138;-68
2021/09/24 09:33:08;;;;;;;19.77;4.95;;;;;;;14.58;68.24;100202.70;1717892;82;21498;-68
2021/09/24 09:35:36;;;;;;;19.67;4.70;;;;;;;14.54;68.11;100213.52;1720280;82;21499;-68
2021/09/24 09:38:02;;;;;;;24.75;4.78;;;;;;;14.63;68.07;100200.26;1720018;82;21107;-68
2021/09/24 09:40:28;;;;;;;19.57;4.33;;;;;;;14.75;67.88;100200.80;1720314;82;21027;-78
2021/09/24 09:42:59;;;;;;;17.05;3.27;;;;;;;14.86;67.57;100198.05;1724296;82;21538;-79
2021/09/24 09:45:23;;;;;;;18.98;3.10;;;;;;;14.86;67.57;100198.05;1717542;82;21067;-78
2021/09/24 09:47:49;;;;;;;16.15;3.40;;;;;;;14.93;67.37;100190.84;1718291;82;21086;-78
2021/09/24 09:50:20;;;;;;;15.80;3.65;;;;;;;15.06;67.25;100195.43;1721447;82;21520;-78
2021/09/24 09:53:10;;;;;;;16.62;3.65;;;;;;;15.31;67.07;100199.98;1723213;82;21059;-78
2021/09/24 09:55:42;;;;;;;17.67;3.55;;;;;;;15.27;66.66;100201.42;1716967;82;21323;-79
2021/09/24 09:58:10;;;;;;;16.20;3.35;;;;;;;15.15;66.37;100195.53;1714619;83;21039;-79
2021/09/24 10:01:03;;;;;;;19.50;4.22;;;;;;;15.16;66.32;100195.86;1689362;83;21046;-79
2021/09/24 10:03:36;;;;;;;14.18;3.30;;;;;;;15.14;66.05;100201.41;1716073;82;21051;-79
2021/09/24 10:06:04;;;;;;;18.82;4.08;;;;;;;15.18;66.02;100204.02;1716894;83;21012;-79
2021/09/24 10:08:32;;;;;;;17.92;3.55;;;;;;;15.24;65.91;100204.53;1717068;82;21547;-79
2021/09/24 10:11:08;;;;;;;19.30;3.60;;;;;;;15.33;65.88;100212.72;1715906;83;21472;-79
2021/09/24 10:13:58;;;;;;;15.40;4.10;;;;;;;15.47;65.85;100212.21;1708794;83;21044;-79
2021/09/24 10:16:31;;;;;;;14.58;3.20;;;;;;;15.70;65.76;100209.95;1678767;84;21074;-78
2021/09/24 10:18:57;;;;;;;16.20;4.10;;;;;;;15.80;65.65;100208.18;1696247;83;21560;-79
2021/09/24 10:21:23;;;;;;;17.45;3.50;;;;;;;15.74;65.51;100202.30;1702837;83;21908;-80
2021/09/24 10:23:50;;;;;;;22.10;3.52;;;;;;;15.79;65.30;100209.24;1716942;82;20999;-79
2021/09/24 10:26:29;;;;;;;16.48;4.15;;;;;;;15.89;65.21;100210.98;1716982;83;21594;-79
2021/09/24 10:29:00;;;;;;;19.00;4.35;;;;;;;16.02;64.98;100206.09;1657949;86;21073;-80
2021/09/24 10:31:27;;;;;;;20.15;4.25;;;;;;;16.26;64.76;100198.68;1716920;82;21522;-80
2021/09/24 10:34:00;;;;;;;17.82;2.80;;;;;;;16.54;64.31;100198.41;1717045;83;21095;-80
2021/09/24 10:36:39;;;;;;;19.32;4.83;;;;;;;16.50;63.63;100193.42;1716387;82;21004;-79
2021/09/24 10:39:31;;;;;;;14.43;3.40;;;;;;;16.44;63.10;100194.28;1716899;82;21172;-80
2021/09/24 10:42:25;;;;;;;15.30;3.55;;;;;;;16.55;62.83;100190.09;1716841;83;21046;-80
2021/09/24 10:45:11;;;;;;;13.65;3.35;;;;;;;16.82;62.63;100202.94;1716075;83;21031;-80
2021/09/24 10:48:06;;;;;;;16.70;3.22;;;;;;;16.86;61.99;100182.61;1717135;83;21805;-79
2021/09/24 10:50:37;;;;;;;13.35;3.33;;;;;;;16.64;61.15;100188.03;1717009;83;20979;-79
2021/09/24 10:53:18;;;;;;;14.63;4.58;;;;;;;16.59;60.79;100187.83;1657792;86;21073;-80
2021/09/24 10:55:53;;;;;;;14.25;2.80;;;;;;;16.72;60.49;100195.33;1717035;82;21546;-80
2021/09/24 10:58:34;;;;;;;13.43;3.17;;;;;;;16.60;59.88;100190.84;1648823;86;21037;-80
2021/09/24 11:01:11;;;;;;;12.98;2.98;;;;;;;16.55;59.63;100201.38;1705759;83;21534;-79
2021/09/24 11:03:56;;;;;;;18.40;3.83;;;;;;;16.33;59.28;100190.90;1686991;83;21566;-80
2021/09/24 11:06:46;;;;;;;11.35;2.67;;;;;;;16.23;59.00;100197.25;1710888;82;21090;-79
2021/09/24 11:09:19;;;;;;;12.45;3.50;;;;;;;16.42;58.88;100191.50;1688130;85;21106;-79
2021/09/24 11:11:50;;;;;;;16.37;3.83;;;;;;;16.67;58.53;100201.06;1709116;83;21012;-78
2021/09/24 11:14:26;;;;;;;17.23;3.50;;;;;;;16.76;58.28;100190.34;1664723;85;21936;-79
2021/09/24 11:16:53;;;;;;;16.02;3.80;;;;;;;16.68;57.29;100190.06;1688120;85;21062;-79
2021/09/24 11:19:46;;;;;;;18.35;3.15;;;;;;;16.70;56.99;100197.94;1687663;85;21467;-79
2021/09/24 11:22:18;;;;;;;17.50;2.90;;;;;;;16.89;56.85;100191.61;1664003;85;40178;-79
2021/09/24 11:25:01;;;;;;;16.55;3.15;;;;;;;16.82;56.31;100201.59;1688976;83;20998;-80